sensor_id;sensor_type;location;lat;lon;timestamp;P1;durP1;ratioP1;P2;durP2;ratioP2
934;SDS011;454;53.254;10.400;2022-07-29T04:02:17;3.60;;;3.22;;
934;SDS011;454;53.254;10.400;2022-07-29T04:04:44;3.42;;;3.22;;
934;SDS011;454;53.254;10.400;2022-07-29T04:07:11;5.23;;;3.10;;
934;SDS011;454;53.254;10.400;2022-07-29T04:09:38;3.37;;;3.10;;
934;SDS011;454;53.254;10.400;2022-07-29T04:12:05;3.50;;;2.90;;
934;SDS011;454;53.254;10.400;2022-07-29T04:14:32;3.05;;;2.80;;
934;SDS011;454;53.254;10.400;2022-07-29T04:16:59;3.40;;;3.00;;
934;SDS011;454;53.254;10.400;2022-07-29T04:19:28;3.42;;;3.13;;
934;SDS011;454;53.254;10.400;2022-07-29T04:21:55;2.40;;;2.40;;
934;SDS011;454;53.254;10.400;2022-07-29T04:24:22;3.47;;;2.43;;
934;SDS011;454;53.254;10.400;2022-07-29T04:26:48;2.47;;;2.28;;
934;SDS011;454;53.254;10.400;2022-07-29T04:29:15;3.10;;;2.73;;
934;SDS011;454;53.254;10.400;2022-07-29T04:31:42;3.63;;;2.60;;
934;SDS011;454;53.254;10.400;2022-07-29T04:34:09;3.20;;;3.00;;
934;SDS011;454;53.254;10.400;2022-07-29T04:36:37;3.30;;;3.10;;
934;SDS011;454;53.254;10.400;2022-07-29T04:39:04;5.97;;;3.17;;
934;SDS011;454;53.254;10.400;2022-07-29T04:41:31;3.43;;;3.23;;
934;SDS011;454;53.254;10.400;2022-07-29T04:43:57;4.13;;;3.20;;
934;SDS011;454;53.254;10.400;2022-07-29T04:46:25;3.27;;;2.97;;
934;SDS011;454;53.254;10.400;2022-07-29T04:48:52;3.70;;;2.93;;
934;SDS011;454;53.254;10.400;2022-07-29T04:51:19;3.80;;;3.13;;
934;SDS011;454;53.254;10.400;2022-07-29T04:53:47;3.00;;;2.80;;
934;SDS011;454;53.254;10.400;2022-07-29T04:56:13;2.97;;;2.80;;
934;SDS011;454;53.254;10.400;2022-07-29T04:58:40;2.57;;;2.43;;
934;SDS011;454;53.254;10.400;2022-07-29T05:01:07;3.17;;;2.80;;
934;SDS011;454;53.254;10.400;2022-07-29T05:03:33;3.40;;;2.40;;
934;SDS011;454;53.254;10.400;2022-07-29T05:06:00;3.20;;;2.97;;
934;SDS011;454;53.254;10.400;2022-07-29T05:08:27;3.30;;;3.03;;
934;SDS011;454;53.254;10.400;2022-07-29T05:10:55;2.83;;;2.70;;
934;SDS011;454;53.254;10.400;2022-07-29T05:13:22;3.20;;;2.67;;
934;SDS011;454;53.254;10.400;2022-07-29T05:15:48;3.20;;;2.87;;
934;SDS011;454;53.254;10.400;2022-07-29T05:18:15;3.83;;;3.00;;
934;SDS011;454;53.254;10.400;2022-07-29T05:20:42;3.27;;;3.07;;
934;SDS011;454;53.254;10.400;2022-07-29T05:23:09;2.90;;;2.80;;
934;SDS011;454;53.254;10.400;2022-07-29T05:25:37;4.60;;;2.60;;
934;SDS011;454;53.254;10.400;2022-07-29T05:28:05;4.67;;;3.10;;
934;SDS011;454;53.254;10.400;2022-07-29T05:30:32;2.50;;;2.50;;
934;SDS011;454;53.254;10.400;2022-07-29T05:32:59;3.80;;;3.00;;
934;SDS011;454;53.254;10.400;2022-07-29T05:35:25;3.30;;;3.00;;
934;SDS011;454;53.254;10.400;2022-07-29T05:37:52;2.90;;;2.70;;
934;SDS011;454;53.254;10.400;2022-07-29T05:40:19;4.70;;;3.40;;
934;SDS011;454;53.254;10.400;2022-07-29T05:42:46;3.03;;;2.83;;
934;SDS011;454;53.254;10.400;2022-07-29T05:45:14;4.17;;;2.40;;
934;SDS011;454;53.254;10.400;2022-07-29T05:47:40;4.20;;;3.07;;
934;SDS011;454;53.254;10.400;2022-07-29T05:50:07;4.30;;;3.90;;
934;SDS011;454;53.254;10.400;2022-07-29T05:52:34;3.63;;;3.33;;
934;SDS011;454;53.254;10.400;2022-07-29T05:55:01;3.70;;;2.80;;
934;SDS011;454;53.254;10.400;2022-07-29T05:57:30;2.57;;;2.53;;
934;SDS011;454;53.254;10.400;2022-07-29T05:59:57;2.97;;;2.87;;
934;SDS011;454;53.254;10.400;2022-07-29T06:02:25;3.00;;;2.67;;
934;SDS011;454;53.254;10.400;2022-07-29T06:04:52;2.43;;;2.37;;
934;SDS011;454;53.254;10.400;2022-07-29T06:07:18;3.03;;;2.63;;
934;SDS011;454;53.254;10.400;2022-07-29T06:09:45;2.53;;;2.30;;
934;SDS011;454;53.254;10.400;2022-07-29T06:12:12;3.57;;;2.60;;
934;SDS011;454;53.254;10.400;2022-07-29T06:14:39;3.30;;;3.03;;
934;SDS011;454;53.254;10.400;2022-07-29T06:17:06;3.03;;;2.77;;
934;SDS011;454;53.254;10.400;2022-07-29T06:19:34;3.13;;;2.70;;
934;SDS011;454;53.254;10.400;2022-07-29T06:22:01;3.20;;;3.00;;
934;SDS011;454;53.254;10.400;2022-07-29T06:24:28;3.37;;;2.60;;
934;SDS011;454;53.254;10.400;2022-07-29T06:26:55;5.03;;;3.30;;
934;SDS011;454;53.254;10.400;2022-07-29T06:29:22;4.60;;;2.77;;
934;SDS011;454;53.254;10.400;2022-07-29T06:31:49;3.13;;;2.93;;
934;SDS011;454;53.254;10.400;2022-07-29T06:34:16;2.77;;;2.57;;
934;SDS011;454;53.254;10.400;2022-07-29T06:36:43;4.73;;;3.47;;
934;SDS011;454;53.254;10.400;2022-07-29T06:39:10;3.80;;;3.30;;
934;SDS011;454;53.254;10.400;2022-07-29T06:41:37;2.50;;;2.40;;
934;SDS011;454;53.254;10.400;2022-07-29T06:44:03;2.70;;;2.50;;
934;SDS011;454;53.254;10.400;2022-07-29T06:46:30;4.43;;;2.47;;
934;SDS011;454;53.254;10.400;2022-07-29T06:48:57;4.57;;;2.73;;
934;SDS011;454;53.254;10.400;2022-07-29T06:51:26;2.30;;;2.10;;
934;SDS011;454;53.254;10.400;2022-07-29T06:53:54;2.53;;;2.43;;
934;SDS011;454;53.254;10.400;2022-07-29T06:56:22;2.77;;;2.67;;
934;SDS011;454;53.254;10.400;2022-07-29T06:58:49;3.13;;;2.20;;
934;SDS011;454;53.254;10.400;2022-07-29T07:01:16;2.60;;;2.50;;
934;SDS011;454;53.254;10.400;2022-07-29T07:03:42;2.30;;;2.20;;
934;SDS011;454;53.254;10.400;2022-07-29T07:06:09;2.70;;;2.50;;
934;SDS011;454;53.254;10.400;2022-07-29T07:08:36;2.23;;;2.23;;
934;SDS011;454;53.254;10.400;2022-07-29T07:11:04;3.20;;;2.80;;
934;SDS011;454;53.254;10.400;2022-07-29T07:13:32;2.70;;;2.60;;
934;SDS011;454;53.254;10.400;2022-07-29T07:15:59;2.90;;;2.70;;
934;SDS011;454;53.254;10.400;2022-07-29T07:18:26;3.20;;;3.00;;
934;SDS011;454;53.254;10.400;2022-07-29T07:20:53;3.87;;;2.80;;
934;SDS011;454;53.254;10.400;2022-07-29T07:23:20;6.13;;;2.67;;
934;SDS011;454;53.254;10.400;2022-07-29T07:25:47;3.70;;;2.60;;
934;SDS011;454;53.254;10.400;2022-07-29T07:28:15;2.50;;;2.37;;
934;SDS011;454;53.254;10.400;2022-07-29T07:30:41;4.23;;;2.90;;
934;SDS011;454;53.254;10.400;2022-07-29T07:33:08;2.93;;;2.47;;
934;SDS011;454;53.254;10.400;2022-07-29T07:35:35;2.90;;;2.63;;
934;SDS011;454;53.254;10.400;2022-07-29T07:38:02;3.30;;;3.00;;
934;SDS011;454;53.254;10.400;2022-07-29T07:40:30;3.40;;;2.60;;
934;SDS011;454;53.254;10.400;2022-07-29T07:42:57;4.43;;;2.83;;
934;SDS011;454;53.254;10.400;2022-07-29T07:45:25;2.63;;;2.30;;
934;SDS011;454;53.254;10.400;2022-07-29T07:47:52;3.03;;;2.40;;
934;SDS011;454;53.254;10.400;2022-07-29T07:50:19;4.30;;;2.53;;
934;SDS011;454;53.254;10.400;2022-07-29T07:52:46;2.70;;;2.50;;
934;SDS011;454;53.254;10.400;2022-07-29T07:55:14;2.50;;;2.40;;
934;SDS011;454;53.254;10.400;2022-07-29T07:57:42;2.40;;;2.27;;
934;SDS011;454;53.254;10.400;2022-07-29T08:00:09;2.43;;;2.20;;
934;SDS011;454;53.254;10.400;2022-07-29T08:02:38;2.30;;;2.20;;
934;SDS011;454;53.254;10.400;2022-07-29T08:05:05;2.63;;;2.53;;
934;SDS011;454;53.254;10.400;2022-07-29T08:07:33;2.37;;;2.13;;
934;SDS011;454;53.254;10.400;2022-07-29T08:10:00;2.43;;;2.30;;
934;SDS011;454;53.254;10.400;2022-07-29T08:12:27;4.03;;;2.90;;
934;SDS011;454;53.254;10.400;2022-07-29T08:14:54;2.57;;;2.47;;
934;SDS011;454;53.254;10.400;2022-07-29T08:17:20;2.13;;;1.97;;
934;SDS011;454;53.254;10.400;2022-07-29T08:19:48;2.23;;;2.10;;
934;SDS011;454;53.254;10.400;2022-07-29T08:22:15;2.63;;;2.50;;
934;SDS011;454;53.254;10.400;2022-07-29T08:24:42;2.10;;;2.00;;
934;SDS011;454;53.254;10.400;2022-07-29T08:27:09;2.37;;;2.27;;
934;SDS011;454;53.254;10.400;2022-07-29T08:29:36;2.40;;;2.10;;
934;SDS011;454;53.254;10.400;2022-07-29T08:32:03;2.37;;;2.27;;
934;SDS011;454;53.254;10.400;2022-07-29T08:34:31;2.70;;;2.60;;
934;SDS011;454;53.254;10.400;2022-07-29T08:36:59;2.37;;;2.17;;
934;SDS011;454;53.254;10.400;2022-07-29T08:39:26;3.10;;;2.90;;
934;SDS011;454;53.254;10.400;2022-07-29T08:41:53;2.93;;;2.47;;
934;SDS011;454;53.254;10.400;2022-07-29T08:44:20;3.10;;;2.20;;
934;SDS011;454;53.254;10.400;2022-07-29T08:46:47;2.40;;;2.30;;
934;SDS011;454;53.254;10.400;2022-07-29T08:49:14;2.90;;;2.70;;
934;SDS011;454;53.254;10.400;2022-07-29T08:51:41;2.67;;;2.57;;
934;SDS011;454;53.254;10.400;2022-07-29T08:54:10;2.73;;;2.50;;
934;SDS011;454;53.254;10.400;2022-07-29T08:56:42;1.93;;;1.93;;
934;SDS011;454;53.254;10.400;2022-07-29T08:59:08;2.30;;;2.20;;
934;SDS011;454;53.254;10.400;2022-07-29T09:01:37;2.80;;;2.60;;
934;SDS011;454;53.254;10.400;2022-07-29T09:04:05;2.40;;;2.30;;
934;SDS011;454;53.254;10.400;2022-07-29T09:06:37;2.20;;;2.10;;
934;SDS011;454;53.254;10.400;2022-07-29T09:09:10;5.53;;;2.80;;
934;SDS011;454;53.254;10.400;2022-07-29T09:11:38;4.00;;;2.50;;
934;SDS011;454;53.254;10.400;2022-07-29T09:14:05;2.97;;;2.27;;
934;SDS011;454;53.254;10.400;2022-07-29T09:16:45;3.13;;;2.80;;
934;SDS011;454;53.254;10.400;2022-07-29T09:19:24;2.27;;;2.17;;
934;SDS011;454;53.254;10.400;2022-07-29T09:21:52;3.50;;;2.40;;
934;SDS011;454;53.254;10.400;2022-07-29T09:24:24;2.53;;;2.33;;
934;SDS011;454;53.254;10.400;2022-07-29T09:27:06;2.77;;;2.53;;
934;SDS011;454;53.254;10.400;2022-07-29T09:29:35;3.00;;;2.80;;
934;SDS011;454;53.254;10.400;2022-07-29T09:32:05;1.80;;;1.80;;
934;SDS011;454;53.254;10.400;2022-07-29T09:34:34;3.80;;;2.47;;
934;SDS011;454;53.254;10.400;2022-07-29T09:37:01;5.03;;;2.40;;
934;SDS011;454;53.254;10.400;2022-07-29T09:39:30;2.50;;;2.40;;
934;SDS011;454;53.254;10.400;2022-07-29T09:42:00;2.37;;;2.27;;
934;SDS011;454;53.254;10.400;2022-07-29T09:44:40;2.43;;;2.10;;
934;SDS011;454;53.254;10.400;2022-07-29T09:47:08;3.20;;;2.37;;
934;SDS011;454;53.254;10.400;2022-07-29T09:49:35;4.33;;;2.03;;
934;SDS011;454;53.254;10.400;2022-07-29T09:52:15;2.80;;;2.27;;
934;SDS011;454;53.254;10.400;2022-07-29T09:54:43;2.10;;;2.00;;
934;SDS011;454;53.254;10.400;2022-07-29T09:57:22;2.13;;;2.03;;
934;SDS011;454;53.254;10.400;2022-07-29T09:59:55;2.47;;;2.37;;
934;SDS011;454;53.254;10.400;2022-07-29T10:02:27;1.80;;;1.80;;
934;SDS011;454;53.254;10.400;2022-07-29T10:04:55;1.57;;;1.57;;
934;SDS011;454;53.254;10.400;2022-07-29T10:07:22;4.03;;;2.17;;
934;SDS011;454;53.254;10.400;2022-07-29T10:09:56;1.90;;;1.80;;
934;SDS011;454;53.254;10.400;2022-07-29T10:12:23;2.43;;;2.10;;
934;SDS011;454;53.254;10.400;2022-07-29T10:14:50;3.33;;;2.57;;
934;SDS011;454;53.254;10.400;2022-07-29T10:17:17;2.50;;;2.30;;
934;SDS011;454;53.254;10.400;2022-07-29T10:19:44;3.30;;;1.73;;
934;SDS011;454;53.254;10.400;2022-07-29T10:22:12;2.40;;;2.30;;
934;SDS011;454;53.254;10.400;2022-07-29T10:24:39;2.17;;;1.97;;
934;SDS011;454;53.254;10.400;2022-07-29T10:27:07;2.20;;;2.10;;
934;SDS011;454;53.254;10.400;2022-07-29T10:29:34;2.07;;;1.97;;
934;SDS011;454;53.254;10.400;2022-07-29T10:38:09;2.73;;;2.17;;
934;SDS011;454;53.254;10.400;2022-07-29T10:40:49;1.87;;;1.87;;
934;SDS011;454;53.254;10.400;2022-07-29T10:43:43;1.87;;;1.77;;
934;SDS011;454;53.254;10.400;2022-07-29T10:46:12;1.73;;;1.73;;
934;SDS011;454;53.254;10.400;2022-07-29T10:54:37;6.23;;;2.40;;
934;SDS011;454;53.254;10.400;2022-07-29T10:57:14;2.20;;;2.10;;
934;SDS011;454;53.254;10.400;2022-07-29T10:59:45;3.13;;;2.20;;
934;SDS011;454;53.254;10.400;2022-07-29T11:05:09;1.97;;;1.87;;
934;SDS011;454;53.254;10.400;2022-07-29T11:07:38;2.13;;;2.03;;
934;SDS011;454;53.254;10.400;2022-07-29T11:10:19;2.00;;;1.90;;
934;SDS011;454;53.254;10.400;2022-07-29T11:12:50;1.70;;;1.70;;
934;SDS011;454;53.254;10.400;2022-07-29T11:15:18;2.43;;;2.33;;
934;SDS011;454;53.254;10.400;2022-07-29T11:18:05;2.27;;;1.90;;
934;SDS011;454;53.254;10.400;2022-07-29T11:20:34;2.00;;;1.90;;
934;SDS011;454;53.254;10.400;2022-07-29T11:23:17;2.50;;;2.33;;
934;SDS011;454;53.254;10.400;2022-07-29T11:25:45;1.70;;;1.70;;
934;SDS011;454;53.254;10.400;2022-07-29T11:28:32;1.93;;;1.70;;
934;SDS011;454;53.254;10.400;2022-07-29T11:31:03;2.10;;;1.50;;
934;SDS011;454;53.254;10.400;2022-07-29T11:33:31;1.70;;;1.70;;
934;SDS011;454;53.254;10.400;2022-07-29T11:36:07;1.63;;;1.53;;
934;SDS011;454;53.254;10.400;2022-07-29T11:38:36;2.23;;;1.60;;
934;SDS011;454;53.254;10.400;2022-07-29T11:43:50;2.00;;;1.90;;
934;SDS011;454;53.254;10.400;2022-07-29T11:46:19;2.20;;;1.80;;
934;SDS011;454;53.254;10.400;2022-07-29T11:49:11;2.30;;;1.83;;
934;SDS011;454;53.254;10.400;2022-07-29T11:51:38;3.40;;;2.20;;
934;SDS011;454;53.254;10.400;2022-07-29T11:54:05;1.90;;;1.80;;
934;SDS011;454;53.254;10.400;2022-07-29T11:56:37;2.20;;;2.03;;
934;SDS011;454;53.254;10.400;2022-07-29T11:59:08;3.53;;;1.70;;
934;SDS011;454;53.254;10.400;2022-07-29T12:01:37;2.13;;;2.10;;
934;SDS011;454;53.254;10.400;2022-07-29T12:04:18;3.90;;;1.73;;
934;SDS011;454;53.254;10.400;2022-07-29T12:06:48;4.53;;;1.90;;
934;SDS011;454;53.254;10.400;2022-07-29T12:09:15;2.53;;;2.33;;
934;SDS011;454;53.254;10.400;2022-07-29T12:11:43;3.37;;;1.97;;
934;SDS011;454;53.254;10.400;2022-07-29T12:14:23;3.27;;;2.30;;
934;SDS011;454;53.254;10.400;2022-07-29T12:16:52;1.97;;;1.87;;
934;SDS011;454;53.254;10.400;2022-07-29T12:19:19;2.00;;;1.90;;
934;SDS011;454;53.254;10.400;2022-07-29T12:21:46;1.93;;;1.83;;
934;SDS011;454;53.254;10.400;2022-07-29T12:24:14;2.03;;;1.83;;
934;SDS011;454;53.254;10.400;2022-07-29T12:26:48;2.97;;;1.73;;
934;SDS011;454;53.254;10.400;2022-07-29T12:29:15;2.03;;;1.80;;
934;SDS011;454;53.254;10.400;2022-07-29T12:31:42;2.20;;;1.60;;
934;SDS011;454;53.254;10.400;2022-07-29T12:34:13;1.83;;;1.73;;
934;SDS011;454;53.254;10.400;2022-07-29T12:36:42;1.60;;;1.50;;
934;SDS011;454;53.254;10.400;2022-07-29T12:39:12;2.13;;;2.00;;
934;SDS011;454;53.254;10.400;2022-07-29T12:41:38;3.10;;;1.80;;
934;SDS011;454;53.254;10.400;2022-07-29T12:44:05;1.80;;;1.80;;
934;SDS011;454;53.254;10.400;2022-07-29T12:46:32;5.80;;;2.77;;
934;SDS011;454;53.254;10.400;2022-07-29T12:48:59;2.13;;;1.90;;
934;SDS011;454;53.254;10.400;2022-07-29T12:51:30;2.17;;;2.07;;
934;SDS011;454;53.254;10.400;2022-07-29T12:54:02;1.67;;;1.67;;
934;SDS011;454;53.254;10.400;2022-07-29T12:56:30;3.93;;;1.97;;
934;SDS011;454;53.254;10.400;2022-07-29T12:58:57;2.17;;;2.07;;
934;SDS011;454;53.254;10.400;2022-07-29T13:01:24;2.17;;;2.07;;
934;SDS011;454;53.254;10.400;2022-07-29T13:03:53;1.87;;;1.77;;
934;SDS011;454;53.254;10.400;2022-07-29T13:06:29;1.77;;;1.77;;
934;SDS011;454;53.254;10.400;2022-07-29T13:08:58;2.93;;;1.90;;
934;SDS011;454;53.254;10.400;2022-07-29T13:11:36;2.30;;;2.20;;
934;SDS011;454;53.254;10.400;2022-07-29T13:14:05;2.00;;;1.90;;
934;SDS011;454;53.254;10.400;2022-07-29T13:16:33;2.63;;;2.20;;
934;SDS011;454;53.254;10.400;2022-07-29T13:19:04;1.83;;;1.83;;
934;SDS011;454;53.254;10.400;2022-07-29T13:21:34;2.97;;;2.83;;
934;SDS011;454;53.254;10.400;2022-07-29T13:24:02;2.77;;;2.13;;
934;SDS011;454;53.254;10.400;2022-07-29T13:26:29;2.00;;;2.00;;
934;SDS011;454;53.254;10.400;2022-07-29T13:28:55;2.23;;;2.10;;
934;SDS011;454;53.254;10.400;2022-07-29T13:31:22;3.50;;;2.07;;
934;SDS011;454;53.254;10.400;2022-07-29T13:33:49;1.97;;;1.87;;
934;SDS011;454;53.254;10.400;2022-07-29T13:36:15;2.30;;;2.20;;
934;SDS011;454;53.254;10.400;2022-07-29T13:38:43;2.93;;;1.80;;
934;SDS011;454;53.254;10.400;2022-07-29T13:41:10;3.80;;;2.30;;
934;SDS011;454;53.254;10.400;2022-07-29T13:43:37;2.70;;;2.53;;
934;SDS011;454;53.254;10.400;2022-07-29T13:46:04;2.53;;;2.30;;
934;SDS011;454;53.254;10.400;2022-07-29T13:48:30;2.30;;;2.20;;
934;SDS011;454;53.254;10.400;2022-07-29T13:50:57;2.63;;;2.40;;
934;SDS011;454;53.254;10.400;2022-07-29T13:53:24;2.40;;;2.30;;
934;SDS011;454;53.254;10.400;2022-07-29T13:55:52;2.30;;;2.20;;
934;SDS011;454;53.254;10.400;2022-07-29T13:58:18;2.33;;;2.23;;
934;SDS011;454;53.254;10.400;2022-07-29T14:00:45;2.30;;;2.30;;
934;SDS011;454;53.254;10.400;2022-07-29T14:03:12;2.57;;;2.37;;
934;SDS011;454;53.254;10.400;2022-07-29T14:05:38;3.57;;;2.00;;
934;SDS011;454;53.254;10.400;2022-07-29T14:08:05;1.90;;;1.90;;
934;SDS011;454;53.254;10.400;2022-07-29T14:10:32;2.57;;;2.10;;
934;SDS011;454;53.254;10.400;2022-07-29T14:13:00;2.60;;;2.43;;
934;SDS011;454;53.254;10.400;2022-07-29T14:15:27;2.30;;;2.20;;
934;SDS011;454;53.254;10.400;2022-07-29T14:17:54;2.37;;;2.17;;
934;SDS011;454;53.254;10.400;2022-07-29T14:20:20;2.10;;;2.10;;
934;SDS011;454;53.254;10.400;2022-07-29T14:22:47;1.87;;;1.87;;
934;SDS011;454;53.254;10.400;2022-07-29T14:25:14;2.27;;;2.20;;
934;SDS011;454;53.254;10.400;2022-07-29T14:27:40;2.60;;;2.40;;
934;SDS011;454;53.254;10.400;2022-07-29T14:30:09;2.47;;;2.33;;
934;SDS011;454;53.254;10.400;2022-07-29T14:32:37;2.00;;;1.90;;
934;SDS011;454;53.254;10.400;2022-07-29T14:35:04;2.50;;;2.27;;
934;SDS011;454;53.254;10.400;2022-07-29T14:37:31;2.20;;;2.17;;
934;SDS011;454;53.254;10.400;2022-07-29T14:39:59;2.53;;;2.33;;
934;SDS011;454;53.254;10.400;2022-07-29T14:42:28;2.47;;;2.47;;
934;SDS011;454;53.254;10.400;2022-07-29T14:44:56;2.67;;;2.57;;
934;SDS011;454;53.254;10.400;2022-07-29T14:47:24;2.60;;;2.40;;
934;SDS011;454;53.254;10.400;2022-07-29T14:49:50;3.00;;;2.80;;
934;SDS011;454;53.254;10.400;2022-07-29T14:52:17;2.57;;;2.47;;
934;SDS011;454;53.254;10.400;2022-07-29T14:54:44;2.50;;;2.40;;
934;SDS011;454;53.254;10.400;2022-07-29T14:57:10;2.63;;;2.50;;
934;SDS011;454;53.254;10.400;2022-07-29T14:59:37;2.20;;;2.20;;
934;SDS011;454;53.254;10.400;2022-07-29T15:02:04;4.20;;;2.20;;
934;SDS011;454;53.254;10.400;2022-07-29T15:04:32;2.50;;;2.30;;
934;SDS011;454;53.254;10.400;2022-07-29T15:06:59;2.27;;;2.13;;
934;SDS011;454;53.254;10.400;2022-07-29T15:09:26;2.77;;;2.53;;
934;SDS011;454;53.254;10.400;2022-07-29T15:11:53;2.60;;;2.50;;
934;SDS011;454;53.254;10.400;2022-07-29T15:14:19;2.40;;;2.20;;
934;SDS011;454;53.254;10.400;2022-07-29T15:16:46;2.27;;;2.27;;
934;SDS011;454;53.254;10.400;2022-07-29T15:19:13;2.70;;;2.60;;
934;SDS011;454;53.254;10.400;2022-07-29T15:21:41;2.67;;;2.43;;
934;SDS011;454;53.254;10.400;2022-07-29T15:24:08;3.33;;;2.43;;
934;SDS011;454;53.254;10.400;2022-07-29T15:26:34;2.33;;;2.10;;
934;SDS011;454;53.254;10.400;2022-07-29T15:29:01;2.03;;;1.90;;
934;SDS011;454;53.254;10.400;2022-07-29T15:31:28;3.13;;;2.20;;
934;SDS011;454;53.254;10.400;2022-07-29T15:33:54;3.53;;;2.27;;
934;SDS011;454;53.254;10.400;2022-07-29T15:36:21;2.47;;;2.33;;
934;SDS011;454;53.254;10.400;2022-07-29T15:38:51;2.53;;;2.40;;
934;SDS011;454;53.254;10.400;2022-07-29T15:41:19;2.07;;;1.97;;
934;SDS011;454;53.254;10.400;2022-07-29T15:43:46;2.30;;;2.20;;
934;SDS011;454;53.254;10.400;2022-07-29T15:46:13;2.80;;;2.13;;
934;SDS011;454;53.254;10.400;2022-07-29T15:48:58;2.30;;;2.30;;
934;SDS011;454;53.254;10.400;2022-07-29T15:51:25;2.33;;;2.23;;
934;SDS011;454;53.254;10.400;2022-07-29T15:53:53;2.30;;;2.20;;
934;SDS011;454;53.254;10.400;2022-07-29T15:56:20;2.93;;;2.37;;
934;SDS011;454;53.254;10.400;2022-07-29T15:58:47;2.10;;;2.10;;
934;SDS011;454;53.254;10.400;2022-07-29T16:01:14;2.60;;;2.33;;
934;SDS011;454;53.254;10.400;2022-07-29T16:03:41;2.13;;;2.13;;
934;SDS011;454;53.254;10.400;2022-07-29T16:06:08;2.33;;;2.20;;
934;SDS011;454;53.254;10.400;2022-07-29T16:08:34;2.70;;;2.50;;
934;SDS011;454;53.254;10.400;2022-07-29T16:11:03;6.33;;;2.50;;
934;SDS011;454;53.254;10.400;2022-07-29T16:13:29;3.57;;;3.27;;
934;SDS011;454;53.254;10.400;2022-07-29T16:15:56;6.10;;;2.47;;
934;SDS011;454;53.254;10.400;2022-07-29T16:18:23;2.73;;;2.63;;
934;SDS011;454;53.254;10.400;2022-07-29T16:20:50;2.60;;;2.47;;
934;SDS011;454;53.254;10.400;2022-07-29T16:23:16;2.67;;;2.47;;
934;SDS011;454;53.254;10.400;2022-07-29T16:25:43;3.43;;;2.60;;
934;SDS011;454;53.254;10.400;2022-07-29T16:28:11;2.60;;;2.40;;
934;SDS011;454;53.254;10.400;2022-07-29T16:30:38;3.80;;;2.50;;
934;SDS011;454;53.254;10.400;2022-07-29T16:33:05;2.50;;;2.30;;
934;SDS011;454;53.254;10.400;2022-07-29T16:35:31;3.33;;;2.73;;
934;SDS011;454;53.254;10.400;2022-07-29T16:38:01;5.17;;;2.70;;
934;SDS011;454;53.254;10.400;2022-07-29T16:40:28;6.00;;;4.03;;
934;SDS011;454;53.254;10.400;2022-07-29T16:42:54;4.17;;;3.30;;
934;SDS011;454;53.254;10.400;2022-07-29T16:45:22;2.63;;;2.43;;
934;SDS011;454;53.254;10.400;2022-07-29T16:47:49;3.27;;;2.47;;
934;SDS011;454;53.254;10.400;2022-07-29T16:50:16;2.63;;;1.93;;
934;SDS011;454;53.254;10.400;2022-07-29T16:52:43;2.50;;;2.30;;
934;SDS011;454;53.254;10.400;2022-07-29T16:55:09;6.53;;;3.00;;
934;SDS011;454;53.254;10.400;2022-07-29T16:57:36;2.70;;;2.50;;
934;SDS011;454;53.254;10.400;2022-07-29T17:00:03;2.90;;;2.70;;
934;SDS011;454;53.254;10.400;2022-07-29T17:02:32;2.83;;;2.73;;
934;SDS011;454;53.254;10.400;2022-07-29T17:04:59;4.40;;;2.27;;
934;SDS011;454;53.254;10.400;2022-07-29T17:07:26;2.63;;;2.53;;
934;SDS011;454;53.254;10.400;2022-07-29T17:09:52;2.70;;;2.57;;
934;SDS011;454;53.254;10.400;2022-07-29T17:12:20;2.47;;;2.30;;
934;SDS011;454;53.254;10.400;2022-07-29T17:14:47;3.03;;;2.83;;
934;SDS011;454;53.254;10.400;2022-07-29T17:17:14;2.70;;;2.60;;
934;SDS011;454;53.254;10.400;2022-07-29T17:19:42;3.27;;;2.97;;
934;SDS011;454;53.254;10.400;2022-07-29T17:22:09;3.63;;;2.50;;
934;SDS011;454;53.254;10.400;2022-07-29T17:24:35;2.67;;;2.47;;
934;SDS011;454;53.254;10.400;2022-07-29T17:27:02;2.60;;;2.23;;
934;SDS011;454;53.254;10.400;2022-07-29T17:29:29;5.37;;;2.40;;
934;SDS011;454;53.254;10.400;2022-07-29T17:31:56;4.33;;;3.00;;
934;SDS011;454;53.254;10.400;2022-07-29T17:34:24;9.77;;;2.97;;
934;SDS011;454;53.254;10.400;2022-07-29T17:36:52;2.37;;;2.27;;
934;SDS011;454;53.254;10.400;2022-07-29T17:39:18;4.10;;;3.20;;
934;SDS011;454;53.254;10.400;2022-07-29T17:41:45;3.50;;;3.23;;
934;SDS011;454;53.254;10.400;2022-07-29T17:44:12;3.63;;;2.87;;
934;SDS011;454;53.254;10.400;2022-07-29T17:46:39;4.27;;;2.73;;
934;SDS011;454;53.254;10.400;2022-07-29T17:49:06;3.90;;;2.70;;
934;SDS011;454;53.254;10.400;2022-07-29T17:51:32;7.83;;;2.67;;
934;SDS011;454;53.254;10.400;2022-07-29T17:54:01;5.00;;;3.10;;
934;SDS011;454;53.254;10.400;2022-07-29T17:56:28;2.93;;;2.73;;
934;SDS011;454;53.254;10.400;2022-07-29T17:58:54;3.10;;;2.90;;
934;SDS011;454;53.254;10.400;2022-07-29T18:01:25;6.73;;;3.07;;
934;SDS011;454;53.254;10.400;2022-07-29T18:03:51;2.93;;;2.70;;
934;SDS011;454;53.254;10.400;2022-07-29T18:06:18;2.70;;;2.60;;
934;SDS011;454;53.254;10.400;2022-07-29T18:08:45;2.40;;;2.30;;
934;SDS011;454;53.254;10.400;2022-07-29T18:11:13;3.53;;;2.47;;
934;SDS011;454;53.254;10.400;2022-07-29T18:13:40;3.93;;;2.80;;
934;SDS011;454;53.254;10.400;2022-07-29T18:16:07;2.87;;;2.67;;
934;SDS011;454;53.254;10.400;2022-07-29T18:18:34;2.73;;;2.63;;
934;SDS011;454;53.254;10.400;2022-07-29T18:21:02;3.03;;;2.90;;
934;SDS011;454;53.254;10.400;2022-07-29T18:23:29;2.60;;;2.40;;
934;SDS011;454;53.254;10.400;2022-07-29T18:25:56;3.20;;;3.00;;
934;SDS011;454;53.254;10.400;2022-07-29T18:28:24;3.13;;;2.80;;
934;SDS011;454;53.254;10.400;2022-07-29T18:30:50;4.57;;;3.00;;
934;SDS011;454;53.254;10.400;2022-07-29T18:33:17;3.90;;;3.00;;
934;SDS011;454;53.254;10.400;2022-07-29T18:35:44;5.27;;;3.30;;
934;SDS011;454;53.254;10.400;2022-07-29T18:38:11;3.27;;;3.00;;
934;SDS011;454;53.254;10.400;2022-07-29T18:40:38;5.87;;;2.90;;
934;SDS011;454;53.254;10.400;2022-07-29T18:43:06;2.67;;;2.53;;
934;SDS011;454;53.254;10.400;2022-07-29T18:45:34;3.03;;;2.80;;
934;SDS011;454;53.254;10.400;2022-07-29T18:48:01;2.77;;;2.57;;
934;SDS011;454;53.254;10.400;2022-07-29T18:50:27;3.23;;;3.00;;
934;SDS011;454;53.254;10.400;2022-07-29T18:52:54;2.77;;;2.67;;
934;SDS011;454;53.254;10.400;2022-07-29T18:55:22;2.97;;;2.80;;
934;SDS011;454;53.254;10.400;2022-07-29T18:57:49;3.33;;;3.23;;
934;SDS011;454;53.254;10.400;2022-07-29T19:00:16;6.10;;;3.20;;
934;SDS011;454;53.254;10.400;2022-07-29T19:02:44;3.40;;;3.10;;
934;SDS011;454;53.254;10.400;2022-07-29T19:05:11;2.67;;;2.53;;
934;SDS011;454;53.254;10.400;2022-07-29T19:07:38;3.83;;;3.27;;
934;SDS011;454;53.254;10.400;2022-07-29T19:10:05;4.30;;;3.03;;
934;SDS011;454;53.254;10.400;2022-07-29T19:12:32;3.73;;;3.40;;
934;SDS011;454;53.254;10.400;2022-07-29T19:14:59;3.00;;;2.80;;
934;SDS011;454;53.254;10.400;2022-07-29T19:17:26;3.07;;;2.87;;
934;SDS011;454;53.254;10.400;2022-07-29T19:19:54;3.70;;;2.70;;
934;SDS011;454;53.254;10.400;2022-07-29T19:22:21;3.87;;;3.00;;
934;SDS011;454;53.254;10.400;2022-07-29T19:24:48;3.80;;;3.50;;
934;SDS011;454;53.254;10.400;2022-07-29T19:27:15;3.10;;;2.90;;
934;SDS011;454;53.254;10.400;2022-07-29T19:29:42;2.90;;;2.80;;
934;SDS011;454;53.254;10.400;2022-07-29T19:32:09;3.40;;;3.17;;
934;SDS011;454;53.254;10.400;2022-07-29T19:34:37;3.27;;;3.03;;
934;SDS011;454;53.254;10.400;2022-07-29T19:37:05;4.30;;;3.03;;
934;SDS011;454;53.254;10.400;2022-07-29T19:39:32;3.47;;;3.20;;
934;SDS011;454;53.254;10.400;2022-07-29T19:41:58;7.23;;;3.30;;
934;SDS011;454;53.254;10.400;2022-07-29T19:44:26;3.13;;;2.80;;
934;SDS011;454;53.254;10.400;2022-07-29T19:46:52;3.40;;;3.30;;
934;SDS011;454;53.254;10.400;2022-07-29T19:49:19;3.50;;;2.70;;
934;SDS011;454;53.254;10.400;2022-07-29T19:51:46;3.60;;;3.40;;
934;SDS011;454;53.254;10.400;2022-07-29T19:54:14;2.80;;;2.70;;